sensor_id;sensor_type;location;lat;lon;timestamp;P1;durP1;ratioP1;P2;durP2;ratioP2
11267;SDS011;49397;47.474;9.416;2022-11-15T00:01:44;7.70;;;5.17;;
11267;SDS011;49397;47.474;9.416;2022-11-15T00:04:09;6.30;;;4.83;;
11267;SDS011;49397;47.474;9.416;2022-11-15T00:06:35;6.27;;;5.03;;
11267;SDS011;49397;47.474;9.416;2022-11-15T00:09:01;6.27;;;4.87;;
11267;SDS011;49397;47.474;9.416;2022-11-15T00:11:27;6.07;;;5.47;;
11267;SDS011;49397;47.474;9.416;2022-11-15T00:13:56;7.57;;;4.70;;
11267;SDS011;49397;47.474;9.416;2022-11-15T00:16:22;6.00;;;5.07;;
11267;SDS011;49397;47.474;9.416;2022-11-15T00:18:48;6.93;;;4.97;;
11267;SDS011;49397;47.474;9.416;2022-11-15T00:21:14;6.23;;;4.97;;
11267;SDS011;49397;47.474;9.416;2022-11-15T00:23:40;5.20;;;4.30;;
11267;SDS011;49397;47.474;9.416;2022-11-15T00:26:06;4.67;;;4.17;;
11267;SDS011;49397;47.474;9.416;2022-11-15T00:28:32;4.70;;;3.87;;
11267;SDS011;49397;47.474;9.416;2022-11-15T00:31:01;4.50;;;3.97;;
11267;SDS011;49397;47.474;9.416;2022-11-15T00:33:28;4.47;;;4.07;;
11267;SDS011;49397;47.474;9.416;2022-11-15T00:35:58;4.30;;;3.90;;
11267;SDS011;49397;47.474;9.416;2022-11-15T00:38:25;4.77;;;4.00;;
11267;SDS011;49397;47.474;9.416;2022-11-15T00:40:50;5.30;;;3.97;;
11267;SDS011;49397;47.474;9.416;2022-11-15T00:43:16;6.30;;;4.37;;
11267;SDS011;49397;47.474;9.416;2022-11-15T00:45:41;3.57;;;3.23;;
11267;SDS011;49397;47.474;9.416;2022-11-15T00:48:08;5.30;;;4.67;;
11267;SDS011;49397;47.474;9.416;2022-11-15T00:50:34;8.10;;;4.33;;
11267;SDS011;49397;47.474;9.416;2022-11-15T00:53:00;7.20;;;4.00;;
11267;SDS011;49397;47.474;9.416;2022-11-15T00:55:25;8.97;;;4.43;;
11267;SDS011;49397;47.474;9.416;2022-11-15T00:57:51;6.77;;;3.93;;
11267;SDS011;49397;47.474;9.416;2022-11-15T01:00:16;6.67;;;4.40;;
11267;SDS011;49397;47.474;9.416;2022-11-15T01:02:42;7.37;;;4.57;;
11267;SDS011;49397;47.474;9.416;2022-11-15T01:05:07;5.53;;;4.23;;
11267;SDS011;49397;47.474;9.416;2022-11-15T01:07:33;5.93;;;4.50;;
11267;SDS011;49397;47.474;9.416;2022-11-15T01:09:59;7.77;;;4.07;;
11267;SDS011;49397;47.474;9.416;2022-11-15T01:12:24;5.53;;;4.33;;
11267;SDS011;49397;47.474;9.416;2022-11-15T01:14:50;7.80;;;4.37;;
11267;SDS011;49397;47.474;9.416;2022-11-15T01:17:15;6.37;;;4.67;;
11267;SDS011;49397;47.474;9.416;2022-11-15T01:19:41;6.37;;;4.87;;
11267;SDS011;49397;47.474;9.416;2022-11-15T01:22:06;8.03;;;4.27;;
11267;SDS011;49397;47.474;9.416;2022-11-15T01:24:32;4.87;;;4.13;;
11267;SDS011;49397;47.474;9.416;2022-11-15T01:26:57;5.00;;;3.93;;
11267;SDS011;49397;47.474;9.416;2022-11-15T01:29:23;6.33;;;4.27;;
11267;SDS011;49397;47.474;9.416;2022-11-15T01:31:48;5.10;;;3.90;;
11267;SDS011;49397;47.474;9.416;2022-11-15T01:34:14;9.60;;;4.40;;
11267;SDS011;49397;47.474;9.416;2022-11-15T01:36:40;5.97;;;4.53;;
11267;SDS011;49397;47.474;9.416;2022-11-15T01:39:05;5.60;;;4.20;;
11267;SDS011;49397;47.474;9.416;2022-11-15T01:41:31;4.97;;;3.60;;
11267;SDS011;49397;47.474;9.416;2022-11-15T01:47:02;4.00;;;3.60;;
11267;SDS011;49397;47.474;9.416;2022-11-15T01:49:31;4.27;;;3.30;;
11267;SDS011;49397;47.474;9.416;2022-11-15T01:51:59;4.33;;;3.50;;
11267;SDS011;49397;47.474;9.416;2022-11-15T01:54:26;7.97;;;3.30;;
11267;SDS011;49397;47.474;9.416;2022-11-15T01:56:57;4.60;;;3.80;;
11267;SDS011;49397;47.474;9.416;2022-11-15T01:59:26;4.40;;;3.10;;
11267;SDS011;49397;47.474;9.416;2022-11-15T02:01:52;5.23;;;3.43;;
11267;SDS011;49397;47.474;9.416;2022-11-15T02:04:20;4.33;;;3.83;;
11267;SDS011;49397;47.474;9.416;2022-11-15T02:06:51;9.93;;;3.83;;
11267;SDS011;49397;47.474;9.416;2022-11-15T02:09:17;5.30;;;3.73;;
11267;SDS011;49397;47.474;9.416;2022-11-15T02:11:42;5.37;;;4.03;;
11267;SDS011;49397;47.474;9.416;2022-11-15T02:14:10;4.43;;;3.33;;
11267;SDS011;49397;47.474;9.416;2022-11-15T02:31:26;5.23;;;3.73;;
11267;SDS011;49397;47.474;9.416;2022-11-15T02:33:53;4.30;;;3.87;;
11267;SDS011;49397;47.474;9.416;2022-11-15T02:38:59;5.83;;;3.80;;
11267;SDS011;49397;47.474;9.416;2022-11-15T02:41:53;4.33;;;3.80;;
11267;SDS011;49397;47.474;9.416;2022-11-15T02:44:38;5.40;;;3.33;;
11267;SDS011;49397;47.474;9.416;2022-11-15T02:47:11;2.87;;;2.67;;
11267;SDS011;49397;47.474;9.416;2022-11-15T02:49:46;3.90;;;3.43;;
11267;SDS011;49397;47.474;9.416;2022-11-15T02:52:14;2.83;;;2.43;;
11267;SDS011;49397;47.474;9.416;2022-11-15T02:54:41;4.70;;;3.40;;
11267;SDS011;49397;47.474;9.416;2022-11-15T02:57:07;3.20;;;2.90;;
11267;SDS011;49397;47.474;9.416;2022-11-15T03:05:02;2.50;;;2.30;;
11267;SDS011;49397;47.474;9.416;2022-11-15T03:10:19;3.60;;;3.27;;
11267;SDS011;49397;47.474;9.416;2022-11-15T03:12:55;3.07;;;2.87;;
11267;SDS011;49397;47.474;9.416;2022-11-15T03:15:29;4.57;;;3.50;;
11267;SDS011;49397;47.474;9.416;2022-11-15T03:18:00;3.30;;;3.00;;
11267;SDS011;49397;47.474;9.416;2022-11-15T03:20:32;8.90;;;3.73;;
11267;SDS011;49397;47.474;9.416;2022-11-15T03:23:01;3.90;;;3.47;;
11267;SDS011;49397;47.474;9.416;2022-11-15T03:25:30;4.97;;;3.30;;
11267;SDS011;49397;47.474;9.416;2022-11-15T03:27:59;3.50;;;2.97;;
11267;SDS011;49397;47.474;9.416;2022-11-15T03:30:28;4.53;;;3.57;;
11267;SDS011;49397;47.474;9.416;2022-11-15T03:32:57;3.60;;;3.07;;
11267;SDS011;49397;47.474;9.416;2022-11-15T03:35:27;3.20;;;2.90;;
11267;SDS011;49397;47.474;9.416;2022-11-15T03:40:58;3.20;;;2.93;;
11267;SDS011;49397;47.474;9.416;2022-11-15T03:45:54;4.70;;;3.63;;
11267;SDS011;49397;47.474;9.416;2022-11-15T03:48:27;4.57;;;3.43;;
11267;SDS011;49397;47.474;9.416;2022-11-15T03:51:03;3.83;;;3.40;;
11267;SDS011;49397;47.474;9.416;2022-11-15T03:53:29;3.57;;;3.17;;
11267;SDS011;49397;47.474;9.416;2022-11-15T03:55:57;4.83;;;4.00;;
11267;SDS011;49397;47.474;9.416;2022-11-15T03:58:22;4.60;;;3.40;;
11267;SDS011;49397;47.474;9.416;2022-11-15T04:00:48;5.27;;;3.20;;
11267;SDS011;49397;47.474;9.416;2022-11-15T04:03:13;3.87;;;3.50;;
11267;SDS011;49397;47.474;9.416;2022-11-15T04:05:39;3.03;;;2.73;;
11267;SDS011;49397;47.474;9.416;2022-11-15T04:08:04;7.83;;;3.57;;
11267;SDS011;49397;47.474;9.416;2022-11-15T04:10:30;4.03;;;3.23;;
11267;SDS011;49397;47.474;9.416;2022-11-15T04:12:55;3.60;;;3.30;;
11267;SDS011;49397;47.474;9.416;2022-11-15T04:15:21;3.90;;;3.30;;
11267;SDS011;49397;47.474;9.416;2022-11-15T04:17:49;4.67;;;3.10;;
11267;SDS011;49397;47.474;9.416;2022-11-15T04:20:18;4.03;;;3.63;;
11267;SDS011;49397;47.474;9.416;2022-11-15T04:23:04;7.43;;;3.50;;
11267;SDS011;49397;47.474;9.416;2022-11-15T04:25:51;4.60;;;3.23;;
11267;SDS011;49397;47.474;9.416;2022-11-15T04:28:18;4.57;;;3.83;;
11267;SDS011;49397;47.474;9.416;2022-11-15T04:30:43;5.97;;;3.60;;
11267;SDS011;49397;47.474;9.416;2022-11-15T04:33:09;3.87;;;3.57;;
11267;SDS011;49397;47.474;9.416;2022-11-15T04:35:34;4.10;;;3.70;;
11267;SDS011;49397;47.474;9.416;2022-11-15T04:38:00;3.53;;;3.23;;
11267;SDS011;49397;47.474;9.416;2022-11-15T04:40:26;4.40;;;4.00;;
11267;SDS011;49397;47.474;9.416;2022-11-15T04:42:52;5.63;;;3.70;;
11267;SDS011;49397;47.474;9.416;2022-11-15T04:45:17;5.27;;;4.33;;
11267;SDS011;49397;47.474;9.416;2022-11-15T04:47:44;4.70;;;3.80;;
11267;SDS011;49397;47.474;9.416;2022-11-15T04:50:10;4.30;;;3.30;;
11267;SDS011;49397;47.474;9.416;2022-11-15T04:52:42;4.47;;;4.00;;
11267;SDS011;49397;47.474;9.416;2022-11-15T04:55:09;4.43;;;4.03;;
11267;SDS011;49397;47.474;9.416;2022-11-15T04:57:35;7.83;;;4.23;;
11267;SDS011;49397;47.474;9.416;2022-11-15T05:00:02;6.27;;;4.47;;
11267;SDS011;49397;47.474;9.416;2022-11-15T05:02:32;4.13;;;3.57;;
11267;SDS011;49397;47.474;9.416;2022-11-15T05:05:16;4.50;;;3.90;;
11267;SDS011;49397;47.474;9.416;2022-11-15T05:07:42;4.60;;;4.13;;
11267;SDS011;49397;47.474;9.416;2022-11-15T05:10:07;6.43;;;4.40;;
11267;SDS011;49397;47.474;9.416;2022-11-15T05:12:33;7.73;;;3.60;;
11267;SDS011;49397;47.474;9.416;2022-11-15T05:14:59;4.47;;;3.90;;
11267;SDS011;49397;47.474;9.416;2022-11-15T05:17:24;5.60;;;3.47;;
11267;SDS011;49397;47.474;9.416;2022-11-15T05:19:50;5.13;;;3.73;;
11267;SDS011;49397;47.474;9.416;2022-11-15T05:22:17;9.33;;;4.10;;
11267;SDS011;49397;47.474;9.416;2022-11-15T05:24:43;3.90;;;3.50;;
11267;SDS011;49397;47.474;9.416;2022-11-15T05:27:08;5.33;;;3.67;;
11267;SDS011;49397;47.474;9.416;2022-11-15T05:29:34;4.23;;;3.50;;
11267;SDS011;49397;47.474;9.416;2022-11-15T05:31:59;4.43;;;3.83;;
11267;SDS011;49397;47.474;9.416;2022-11-15T05:34:25;4.37;;;3.67;;
11267;SDS011;49397;47.474;9.416;2022-11-15T05:36:51;6.83;;;4.40;;
11267;SDS011;49397;47.474;9.416;2022-11-15T05:39:17;5.03;;;3.53;;
11267;SDS011;49397;47.474;9.416;2022-11-15T05:41:44;4.63;;;4.17;;
11267;SDS011;49397;47.474;9.416;2022-11-15T05:44:16;4.57;;;4.10;;
11267;SDS011;49397;47.474;9.416;2022-11-15T05:46:46;5.73;;;4.40;;
11267;SDS011;49397;47.474;9.416;2022-11-15T05:49:13;4.20;;;3.77;;
11267;SDS011;49397;47.474;9.416;2022-11-15T05:51:42;5.33;;;4.17;;
11267;SDS011;49397;47.474;9.416;2022-11-15T05:54:11;5.47;;;4.23;;
11267;SDS011;49397;47.474;9.416;2022-11-15T05:56:37;6.50;;;3.90;;
11267;SDS011;49397;47.474;9.416;2022-11-15T05:59:02;7.33;;;4.87;;
11267;SDS011;49397;47.474;9.416;2022-11-15T06:01:28;6.83;;;5.30;;
11267;SDS011;49397;47.474;9.416;2022-11-15T06:03:55;5.17;;;4.60;;
11267;SDS011;49397;47.474;9.416;2022-11-15T06:06:20;6.60;;;4.30;;
11267;SDS011;49397;47.474;9.416;2022-11-15T06:08:45;7.87;;;4.57;;
11267;SDS011;49397;47.474;9.416;2022-11-15T06:11:13;6.90;;;4.50;;
11267;SDS011;49397;47.474;9.416;2022-11-15T06:13:38;6.73;;;4.40;;
11267;SDS011;49397;47.474;9.416;2022-11-15T06:16:04;5.97;;;4.63;;
11267;SDS011;49397;47.474;9.416;2022-11-15T06:18:31;4.33;;;3.93;;
11267;SDS011;49397;47.474;9.416;2022-11-15T06:20:58;6.63;;;3.83;;
11267;SDS011;49397;47.474;9.416;2022-11-15T06:23:24;5.17;;;3.40;;
11267;SDS011;49397;47.474;9.416;2022-11-15T06:25:50;4.10;;;3.53;;
11267;SDS011;49397;47.474;9.416;2022-11-15T06:28:15;4.40;;;3.10;;
11267;SDS011;49397;47.474;9.416;2022-11-15T06:30:41;8.10;;;4.07;;
11267;SDS011;49397;47.474;9.416;2022-11-15T06:33:06;4.50;;;3.53;;
11267;SDS011;49397;47.474;9.416;2022-11-15T06:35:34;5.63;;;3.73;;
11267;SDS011;49397;47.474;9.416;2022-11-15T06:38:04;4.37;;;3.40;;
11267;SDS011;49397;47.474;9.416;2022-11-15T06:40:33;5.60;;;3.50;;
11267;SDS011;49397;47.474;9.416;2022-11-15T06:43:00;4.53;;;3.33;;
11267;SDS011;49397;47.474;9.416;2022-11-15T06:45:26;5.63;;;3.53;;
11267;SDS011;49397;47.474;9.416;2022-11-15T06:47:51;4.40;;;3.10;;
11267;SDS011;49397;47.474;9.416;2022-11-15T06:50:17;3.30;;;3.00;;
11267;SDS011;49397;47.474;9.416;2022-11-15T06:52:42;4.83;;;3.97;;
11267;SDS011;49397;47.474;9.416;2022-11-15T06:55:08;4.33;;;3.67;;
11267;SDS011;49397;47.474;9.416;2022-11-15T06:57:34;3.50;;;3.20;;
11267;SDS011;49397;47.474;9.416;2022-11-15T07:00:00;7.37;;;3.60;;
11267;SDS011;49397;47.474;9.416;2022-11-15T07:02:25;4.90;;;3.57;;
11267;SDS011;49397;47.474;9.416;2022-11-15T07:04:51;4.73;;;3.30;;
11267;SDS011;49397;47.474;9.416;2022-11-15T07:07:16;4.93;;;3.90;;
11267;SDS011;49397;47.474;9.416;2022-11-15T07:09:41;7.30;;;3.37;;
11267;SDS011;49397;47.474;9.416;2022-11-15T07:12:07;5.33;;;3.63;;
11267;SDS011;49397;47.474;9.416;2022-11-15T07:14:32;4.47;;;3.57;;
11267;SDS011;49397;47.474;9.416;2022-11-15T07:16:58;5.07;;;3.53;;
11267;SDS011;49397;47.474;9.416;2022-11-15T07:19:23;4.33;;;3.93;;
11267;SDS011;49397;47.474;9.416;2022-11-15T07:21:49;4.10;;;3.80;;
11267;SDS011;49397;47.474;9.416;2022-11-15T07:24:14;5.03;;;3.67;;
11267;SDS011;49397;47.474;9.416;2022-11-15T07:26:40;5.43;;;4.00;;
11267;SDS011;49397;47.474;9.416;2022-11-15T07:29:05;6.23;;;4.10;;
11267;SDS011;49397;47.474;9.416;2022-11-15T07:31:31;5.03;;;3.90;;
11267;SDS011;49397;47.474;9.416;2022-11-15T07:33:56;4.17;;;3.77;;
11267;SDS011;49397;47.474;9.416;2022-11-15T07:36:22;4.57;;;3.50;;
11267;SDS011;49397;47.474;9.416;2022-11-15T07:38:47;4.40;;;3.73;;
11267;SDS011;49397;47.474;9.416;2022-11-15T07:41:13;11.90;;;4.70;;
11267;SDS011;49397;47.474;9.416;2022-11-15T07:43:38;5.17;;;4.00;;
11267;SDS011;49397;47.474;9.416;2022-11-15T07:46:05;6.70;;;4.37;;
11267;SDS011;49397;47.474;9.416;2022-11-15T07:48:34;4.57;;;4.07;;
11267;SDS011;49397;47.474;9.416;2022-11-15T07:51:00;6.53;;;3.57;;
11267;SDS011;49397;47.474;9.416;2022-11-15T07:53:25;4.83;;;3.80;;
11267;SDS011;49397;47.474;9.416;2022-11-15T07:55:51;6.87;;;4.87;;
11267;SDS011;49397;47.474;9.416;2022-11-15T07:58:18;6.03;;;4.93;;
11267;SDS011;49397;47.474;9.416;2022-11-15T08:00:44;7.10;;;5.70;;
11267;SDS011;49397;47.474;9.416;2022-11-15T08:03:14;8.23;;;6.27;;
11267;SDS011;49397;47.474;9.416;2022-11-15T08:05:41;13.23;;;5.80;;
11267;SDS011;49397;47.474;9.416;2022-11-15T08:08:08;9.33;;;6.23;;
11267;SDS011;49397;47.474;9.416;2022-11-15T08:10:35;8.87;;;5.87;;
11267;SDS011;49397;47.474;9.416;2022-11-15T08:13:05;10.70;;;6.57;;
11267;SDS011;49397;47.474;9.416;2022-11-15T08:15:33;8.80;;;6.70;;
11267;SDS011;49397;47.474;9.416;2022-11-15T08:18:01;11.00;;;7.77;;
11267;SDS011;49397;47.474;9.416;2022-11-15T08:20:31;10.43;;;7.60;;
11267;SDS011;49397;47.474;9.416;2022-11-15T08:22:58;10.40;;;7.13;;
11267;SDS011;49397;47.474;9.416;2022-11-15T08:25:25;11.00;;;7.63;;
11267;SDS011;49397;47.474;9.416;2022-11-15T08:27:53;9.97;;;7.43;;
11267;SDS011;49397;47.474;9.416;2022-11-15T08:30:20;11.60;;;7.13;;
11267;SDS011;49397;47.474;9.416;2022-11-15T08:32:45;9.83;;;7.30;;
11267;SDS011;49397;47.474;9.416;2022-11-15T08:35:11;9.53;;;7.37;;
11267;SDS011;49397;47.474;9.416;2022-11-15T08:37:36;10.77;;;7.00;;
11267;SDS011;49397;47.474;9.416;2022-11-15T08:40:02;9.37;;;7.70;;
11267;SDS011;49397;47.474;9.416;2022-11-15T08:42:29;11.83;;;8.07;;
11267;SDS011;49397;47.474;9.416;2022-11-15T08:44:54;10.10;;;8.23;;
11267;SDS011;49397;47.474;9.416;2022-11-15T08:47:20;10.07;;;8.17;;
11267;SDS011;49397;47.474;9.416;2022-11-15T08:49:45;10.93;;;8.63;;
11267;SDS011;49397;47.474;9.416;2022-11-15T08:52:11;11.87;;;7.80;;
11267;SDS011;49397;47.474;9.416;2022-11-15T08:54:36;10.93;;;8.33;;
11267;SDS011;49397;47.474;9.416;2022-11-15T08:57:01;11.83;;;9.90;;
11267;SDS011;49397;47.474;9.416;2022-11-15T08:59:27;16.33;;;10.03;;
11267;SDS011;49397;47.474;9.416;2022-11-15T09:01:53;11.23;;;8.40;;
11267;SDS011;49397;47.474;9.416;2022-11-15T09:04:18;9.57;;;8.30;;
11267;SDS011;49397;47.474;9.416;2022-11-15T09:06:44;18.33;;;9.60;;
11267;SDS011;49397;47.474;9.416;2022-11-15T09:09:09;11.30;;;9.10;;
11267;SDS011;49397;47.474;9.416;2022-11-15T09:11:35;14.87;;;10.33;;
11267;SDS011;49397;47.474;9.416;2022-11-15T09:14:00;14.20;;;10.23;;
11267;SDS011;49397;47.474;9.416;2022-11-15T09:16:26;13.97;;;9.93;;
11267;SDS011;49397;47.474;9.416;2022-11-15T09:18:52;15.63;;;10.60;;
11267;SDS011;49397;47.474;9.416;2022-11-15T09:21:19;13.43;;;9.77;;
11267;SDS011;49397;47.474;9.416;2022-11-15T09:23:44;12.00;;;9.43;;
11267;SDS011;49397;47.474;9.416;2022-11-15T09:26:10;11.90;;;9.47;;
11267;SDS011;49397;47.474;9.416;2022-11-15T09:28:36;12.87;;;9.33;;
11267;SDS011;49397;47.474;9.416;2022-11-15T09:31:03;12.87;;;9.60;;
11267;SDS011;49397;47.474;9.416;2022-11-15T09:33:30;13.37;;;9.07;;
11267;SDS011;49397;47.474;9.416;2022-11-15T09:35:59;13.60;;;10.47;;
11267;SDS011;49397;47.474;9.416;2022-11-15T09:38:30;11.60;;;9.40;;
11267;SDS011;49397;47.474;9.416;2022-11-15T09:41:44;13.20;;;9.53;;
11267;SDS011;49397;47.474;9.416;2022-11-15T09:46:49;12.23;;;9.60;;
11267;SDS011;49397;47.474;9.416;2022-11-15T09:49:20;11.00;;;9.33;;
11267;SDS011;49397;47.474;9.416;2022-11-15T09:51:50;15.00;;;10.33;;
11267;SDS011;49397;47.474;9.416;2022-11-15T09:56:46;14.97;;;10.30;;
11267;SDS011;49397;47.474;9.416;2022-11-15T10:04:31;12.67;;;10.03;;
11267;SDS011;49397;47.474;9.416;2022-11-15T10:09:47;12.37;;;9.90;;
11267;SDS011;49397;47.474;9.416;2022-11-15T10:12:22;11.47;;;9.67;;
11267;SDS011;49397;47.474;9.416;2022-11-15T10:14:49;13.30;;;9.53;;
11267;SDS011;49397;47.474;9.416;2022-11-15T10:20:28;15.83;;;10.03;;
11267;SDS011;49397;47.474;9.416;2022-11-15T10:25:33;14.00;;;10.03;;
11267;SDS011;49397;47.474;9.416;2022-11-15T10:28:10;13.80;;;9.87;;
11267;SDS011;49397;47.474;9.416;2022-11-15T10:30:51;12.13;;;10.03;;
11267;SDS011;49397;47.474;9.416;2022-11-15T10:35:46;12.07;;;10.23;;
11267;SDS011;49397;47.474;9.416;2022-11-15T10:38:12;19.53;;;9.23;;
11267;SDS011;49397;47.474;9.416;2022-11-15T10:40:39;14.43;;;11.00;;
11267;SDS011;49397;47.474;9.416;2022-11-15T10:43:17;15.43;;;10.07;;
11267;SDS011;49397;47.474;9.416;2022-11-15T10:45:44;13.40;;;10.07;;
11267;SDS011;49397;47.474;9.416;2022-11-15T10:50:43;12.20;;;10.23;;
11267;SDS011;49397;47.474;9.416;2022-11-15T10:53:23;13.47;;;8.90;;
11267;SDS011;49397;47.474;9.416;2022-11-15T10:55:57;13.43;;;10.60;;
11267;SDS011;49397;47.474;9.416;2022-11-15T10:58:34;12.23;;;10.27;;
11267;SDS011;49397;47.474;9.416;2022-11-15T11:01:17;13.43;;;9.67;;
11267;SDS011;49397;47.474;9.416;2022-11-15T11:03:45;15.53;;;9.93;;
11267;SDS011;49397;47.474;9.416;2022-11-15T11:06:54;14.53;;;9.80;;
11267;SDS011;49397;47.474;9.416;2022-11-15T11:09:31;12.77;;;9.87;;
11267;SDS011;49397;47.474;9.416;2022-11-15T11:12:02;12.47;;;10.03;;
11267;SDS011;49397;47.474;9.416;2022-11-15T11:14:38;13.93;;;9.63;;
11267;SDS011;49397;47.474;9.416;2022-11-15T11:25:03;17.87;;;10.97;;
11267;SDS011;49397;47.474;9.416;2022-11-15T11:27:54;15.47;;;11.20;;
11267;SDS011;49397;47.474;9.416;2022-11-15T11:30:22;13.53;;;11.30;;
11267;SDS011;49397;47.474;9.416;2022-11-15T11:33:10;14.00;;;10.83;;
11267;SDS011;49397;47.474;9.416;2022-11-15T11:38:34;14.90;;;10.70;;
11267;SDS011;49397;47.474;9.416;2022-11-15T11:46:46;13.70;;;10.77;;
11267;SDS011;49397;47.474;9.416;2022-11-15T11:49:18;17.13;;;11.37;;
11267;SDS011;49397;47.474;9.416;2022-11-15T11:51:52;14.47;;;10.87;;
11267;SDS011;49397;47.474;9.416;2022-11-15T11:54:30;16.67;;;11.00;;
11267;SDS011;49397;47.474;9.416;2022-11-15T11:57:16;17.90;;;12.10;;
11267;SDS011;49397;47.474;9.416;2022-11-15T12:00:01;12.67;;;11.37;;
11267;SDS011;49397;47.474;9.416;2022-11-15T12:05:22;13.20;;;11.07;;
11267;SDS011;49397;47.474;9.416;2022-11-15T12:07:53;16.43;;;11.93;;
11267;SDS011;49397;47.474;9.416;2022-11-15T12:10:31;14.03;;;12.07;;
11267;SDS011;49397;47.474;9.416;2022-11-15T12:15:42;16.87;;;12.03;;
11267;SDS011;49397;47.474;9.416;2022-11-15T12:18:12;18.33;;;13.43;;
11267;SDS011;49397;47.474;9.416;2022-11-15T12:20:42;14.27;;;11.13;;
11267;SDS011;49397;47.474;9.416;2022-11-15T12:23:26;16.50;;;12.47;;
11267;SDS011;49397;47.474;9.416;2022-11-15T12:26:00;16.80;;;12.40;;
11267;SDS011;49397;47.474;9.416;2022-11-15T12:28:45;17.37;;;12.83;;
11267;SDS011;49397;47.474;9.416;2022-11-15T12:33:49;17.77;;;12.40;;
11267;SDS011;49397;47.474;9.416;2022-11-15T12:38:59;20.43;;;12.83;;
11267;SDS011;49397;47.474;9.416;2022-11-15T12:41:30;17.53;;;12.77;;
11267;SDS011;49397;47.474;9.416;2022-11-15T12:44:00;17.90;;;12.83;;
11267;SDS011;49397;47.474;9.416;2022-11-15T12:57:22;25.07;;;14.37;;
11267;SDS011;49397;47.474;9.416;2022-11-15T12:59:49;17.70;;;12.63;;
11267;SDS011;49397;47.474;9.416;2022-11-15T13:02:42;17.10;;;13.30;;
11267;SDS011;49397;47.474;9.416;2022-11-15T13:20:19;22.37;;;13.60;;
11267;SDS011;49397;47.474;9.416;2022-11-15T13:33:51;22.37;;;13.83;;
11267;SDS011;49397;47.474;9.416;2022-11-15T13:36:25;17.67;;;13.77;;
11267;SDS011;49397;47.474;9.416;2022-11-15T13:39:03;18.47;;;13.40;;
11267;SDS011;49397;47.474;9.416;2022-11-15T13:41:34;21.47;;;13.77;;
11267;SDS011;49397;47.474;9.416;2022-11-15T13:44:17;21.93;;;14.67;;
11267;SDS011;49397;47.474;9.416;2022-11-15T13:46:45;21.37;;;14.77;;
11267;SDS011;49397;47.474;9.416;2022-11-15T13:49:11;20.20;;;14.67;;
11267;SDS011;49397;47.474;9.416;2022-11-15T13:51:38;22.43;;;14.77;;
11267;SDS011;49397;47.474;9.416;2022-11-15T13:56:37;17.60;;;14.57;;
11267;SDS011;49397;47.474;9.416;2022-11-15T13:59:10;21.60;;;14.23;;
11267;SDS011;49397;47.474;9.416;2022-11-15T14:01:47;18.73;;;14.13;;
11267;SDS011;49397;47.474;9.416;2022-11-15T14:04:17;18.40;;;15.17;;
11267;SDS011;49397;47.474;9.416;2022-11-15T14:06:46;23.33;;;14.03;;
11267;SDS011;49397;47.474;9.416;2022-11-15T14:11:53;17.77;;;13.53;;
11267;SDS011;49397;47.474;9.416;2022-11-15T14:14:21;20.40;;;14.10;;
11267;SDS011;49397;47.474;9.416;2022-11-15T14:16:54;20.00;;;14.07;;
11267;SDS011;49397;47.474;9.416;2022-11-15T14:24:35;19.40;;;13.30;;
11267;SDS011;49397;47.474;9.416;2022-11-15T14:27:20;15.80;;;12.83;;
11267;SDS011;49397;47.474;9.416;2022-11-15T14:29:50;16.10;;;12.20;;
11267;SDS011;49397;47.474;9.416;2022-11-15T14:32:18;18.43;;;14.50;;
11267;SDS011;49397;47.474;9.416;2022-11-15T14:34:46;17.20;;;12.60;;
11267;SDS011;49397;47.474;9.416;2022-11-15T14:37:23;16.40;;;13.50;;
11267;SDS011;49397;47.474;9.416;2022-11-15T14:39:52;21.53;;;12.97;;
11267;SDS011;49397;47.474;9.416;2022-11-15T14:42:19;16.40;;;12.83;;
11267;SDS011;49397;47.474;9.416;2022-11-15T14:44:46;18.73;;;12.83;;
11267;SDS011;49397;47.474;9.416;2022-11-15T14:47:12;19.67;;;13.27;;
11267;SDS011;49397;47.474;9.416;2022-11-15T14:49:38;17.10;;;12.57;;
11267;SDS011;49397;47.474;9.416;2022-11-15T14:54:50;19.27;;;14.50;;
11267;SDS011;49397;47.474;9.416;2022-11-15T14:57:15;22.73;;;15.37;;
11267;SDS011;49397;47.474;9.416;2022-11-15T14:59:41;21.57;;;15.47;;
11267;SDS011;49397;47.474;9.416;2022-11-15T15:02:19;20.27;;;14.87;;
11267;SDS011;49397;47.474;9.416;2022-11-15T15:04:46;18.43;;;14.20;;
11267;SDS011;49397;47.474;9.416;2022-11-15T15:07:12;23.03;;;15.00;;
11267;SDS011;49397;47.474;9.416;2022-11-15T15:09:38;20.80;;;14.57;;
11267;SDS011;49397;47.474;9.416;2022-11-15T15:12:04;19.93;;;13.93;;
11267;SDS011;49397;47.474;9.416;2022-11-15T15:14:36;22.53;;;16.10;;
11267;SDS011;49397;47.474;9.416;2022-11-15T15:17:01;24.53;;;16.43;;
11267;SDS011;49397;47.474;9.416;2022-11-15T15:19:27;19.17;;;14.17;;
11267;SDS011;49397;47.474;9.416;2022-11-15T15:21:52;23.87;;;15.00;;
11267;SDS011;49397;47.474;9.416;2022-11-15T15:24:18;22.20;;;15.33;;
11267;SDS011;49397;47.474;9.416;2022-11-15T15:26:43;17.33;;;12.73;;
11267;SDS011;49397;47.474;9.416;2022-11-15T15:29:09;19.77;;;12.67;;
11267;SDS011;49397;47.474;9.416;2022-11-15T15:31:35;14.47;;;10.70;;
11267;SDS011;49397;47.474;9.416;2022-11-15T15:34:00;13.67;;;10.47;;
11267;SDS011;49397;47.474;9.416;2022-11-15T15:36:26;15.83;;;11.27;;
11267;SDS011;49397;47.474;9.416;2022-11-15T15:38:52;16.13;;;11.80;;
11267;SDS011;49397;47.474;9.416;2022-11-15T15:41:17;15.33;;;11.30;;
11267;SDS011;49397;47.474;9.416;2022-11-15T15:43:43;14.40;;;11.97;;
11267;SDS011;49397;47.474;9.416;2022-11-15T15:46:13;17.97;;;11.70;;
11267;SDS011;49397;47.474;9.416;2022-11-15T15:48:40;20.20;;;12.23;;
11267;SDS011;49397;47.474;9.416;2022-11-15T15:51:06;14.93;;;11.57;;
11267;SDS011;49397;47.474;9.416;2022-11-15T15:53:32;14.47;;;11.20;;
11267;SDS011;49397;47.474;9.416;2022-11-15T15:55:58;15.07;;;10.93;;
11267;SDS011;49397;47.474;9.416;2022-11-15T15:58:23;16.53;;;11.63;;
11267;SDS011;49397;47.474;9.416;2022-11-15T16:00:49;13.87;;;10.80;;
11267;SDS011;49397;47.474;9.416;2022-11-15T16:03:14;15.33;;;9.97;;
11267;SDS011;49397;47.474;9.416;2022-11-15T16:05:39;13.70;;;10.37;;
11267;SDS011;49397;47.474;9.416;2022-11-15T16:08:05;15.03;;;10.70;;
11267;SDS011;49397;47.474;9.416;2022-11-15T16:10:31;14.60;;;11.20;;
11267;SDS011;49397;47.474;9.416;2022-11-15T16:12:59;14.67;;;10.37;;
11267;SDS011;49397;47.474;9.416;2022-11-15T16:15:25;12.30;;;10.13;;
11267;SDS011;49397;47.474;9.416;2022-11-15T16:17:54;14.17;;;9.77;;
11267;SDS011;49397;47.474;9.416;2022-11-15T16:22:59;15.07;;;10.27;;
11267;SDS011;49397;47.474;9.416;2022-11-15T16:25:25;12.80;;;10.07;;
11267;SDS011;49397;47.474;9.416;2022-11-15T16:27:51;17.17;;;12.83;;
11267;SDS011;49397;47.474;9.416;2022-11-15T16:30:18;11.47;;;9.77;;
11267;SDS011;49397;47.474;9.416;2022-11-15T16:32:45;16.13;;;10.23;;
11267;SDS011;49397;47.474;9.416;2022-11-15T16:35:14;17.00;;;10.97;;
11267;SDS011;49397;47.474;9.416;2022-11-15T16:37:41;13.20;;;9.17;;
11267;SDS011;49397;47.474;9.416;2022-11-15T16:40:30;11.67;;;9.63;;
11267;SDS011;49397;47.474;9.416;2022-11-15T16:42:58;12.87;;;9.40;;
11267;SDS011;49397;47.474;9.416;2022-11-15T16:45:27;11.87;;;9.17;;
11267;SDS011;49397;47.474;9.416;2022-11-15T16:47:53;14.40;;;9.17;;
11267;SDS011;49397;47.474;9.416;2022-11-15T16:50:29;12.17;;;9.10;;
11267;SDS011;49397;47.474;9.416;2022-11-15T16:52:59;14.03;;;10.13;;
11267;SDS011;49397;47.474;9.416;2022-11-15T16:55:26;17.37;;;10.50;;
11267;SDS011;49397;47.474;9.416;2022-11-15T16:57:53;14.33;;;10.23;;
11267;SDS011;49397;47.474;9.416;2022-11-15T17:00:20;13.77;;;9.90;;
11267;SDS011;49397;47.474;9.416;2022-11-15T17:02:47;14.57;;;9.53;;
11267;SDS011;49397;47.474;9.416;2022-11-15T17:05:15;14.03;;;9.97;;